Hauptseite
METAR-TAF:

Flughäfen :

Innsbruck, Österreich

Flughafen Innsbruck

Breite: 47-16N, Länge: 011-21E, Höhe: 581 m

Beobachtung

Neuester Wetterbericht von vor 22 Minuten, um 01:20 UTC
Wind 5 kt aus West, variierte zwischen Südwest und West/Nordwest
Temperatur 5°C
Luftfeuchtigkeit 87%
Luftdruck 1020 hPa
Sichtweite 10 km oder mehr

METAR: LOWI 060120Z AUTO 27005KT 230V300 9999 NCD 05/03 Q1020

Zeit: 03:42 (01:42 UTC)

Prognose

Neuester Wetterbericht von vor 2 Stunden und 27 Minuten, um 23:15 UTC
Gültige Prognose vom 06 um 00 UTC bis 06 um 24 UTC
Wind 7 kt aus West
Sichtweite 10 km oder mehr
keine Wolken unter 1500 m und keine Kumulonimbus oder Gewitterwolken
Übergehend zu
vom 06 um 08 UTC bis 06 um 10 UTC
Wind 10 kt aus Ost
Sichtweite 10 km oder mehr
Leicht bewölkt in der Höhe von 6000 ft

TAF: LOWI 052315Z 0600/0624 27007KT CAVOK TX21/0614Z TN07/0604Z BECMG 0608/0610 09010KT 9999 FEW060

METAR-TAF

Wetterbeobachtungen und Prognosen von mehr als 4000 Flughäfen (METAR und TAF Bericht).

Die verfügbaren Stationen werden durch gelbe und rote Markierungen auf der Karte dargestellt.

Führen Sie die Maus auf sie, um den Namen der Station zu sehen.

Darauf klicken, um die Beobachtung von Wetterbeobachtungen und Prognosen zu sehen.

Um die Karte zu ändern : klicken Sie auf den grünen Tasten mit einem schwarzen Kreuz Zum Vergrößern, auf den grünen Button mit einem Gedankenstrich zu verkleinern, oder auf die grünen Pfeile für benachbarte Karten.


METAR-TAF: